createdAt,value
2023-04-08T00:00:31.329Z,0.00
2023-04-08T00:01:31.373Z,0.00
2023-04-08T00:02:31.594Z,0.00
2023-04-08T00:03:31.464Z,0.00
2023-04-08T00:04:31.361Z,0.00
2023-04-08T00:05:31.300Z,0.00
2023-04-08T00:06:31.279Z,0.00
2023-04-08T00:07:31.275Z,0.00
2023-04-08T00:08:31.276Z,0.00
2023-04-08T00:09:31.275Z,0.00
2023-04-08T00:10:31.253Z,0.00
2023-04-08T00:11:31.255Z,0.00
2023-04-08T00:12:31.239Z,0.00
2023-04-08T00:13:31.235Z,0.00
2023-04-08T00:14:31.230Z,0.00
2023-04-08T00:15:31.225Z,0.00
2023-04-08T00:16:31.314Z,0.00
2023-04-08T00:17:31.248Z,0.00
2023-04-08T00:18:31.192Z,0.00
2023-04-08T00:19:31.193Z,0.00
2023-04-08T00:20:31.184Z,0.00
2023-04-08T00:21:31.178Z,0.00
2023-04-08T00:22:31.164Z,0.00
2023-04-08T00:23:31.156Z,0.00
2023-04-08T00:24:31.143Z,0.00
2023-04-08T00:25:31.146Z,0.00
2023-04-08T00:26:31.138Z,0.00
2023-04-08T00:27:31.137Z,0.00
2023-04-08T00:28:31.142Z,0.00
2023-04-08T00:29:31.117Z,0.00
2023-04-08T00:30:31.106Z,0.00
2023-04-08T00:31:31.106Z,0.00
2023-04-08T00:32:31.101Z,0.00
2023-04-08T00:33:31.088Z,0.00
2023-04-08T00:34:31.085Z,0.00
2023-04-08T00:35:31.137Z,0.00
2023-04-08T00:36:31.064Z,0.00
2023-04-08T00:37:31.060Z,0.00
2023-04-08T00:38:31.058Z,0.00
2023-04-08T00:39:31.038Z,0.00
2023-04-08T00:40:31.034Z,0.00
2023-04-08T00:41:31.026Z,0.00
2023-04-08T00:42:31.021Z,0.00
2023-04-08T00:43:31.007Z,0.00
2023-04-08T00:44:31.003Z,0.00
2023-04-08T00:45:31.000Z,0.00
2023-04-08T00:46:31.023Z,0.00
2023-04-08T00:47:31.012Z,0.00
2023-04-08T00:48:30.975Z,0.00
2023-04-08T00:49:30.965Z,0.00
2023-04-08T00:50:30.964Z,0.00
2023-04-08T00:51:30.954Z,0.00
2023-04-08T00:52:30.953Z,0.00
2023-04-08T00:53:30.940Z,0.00
2023-04-08T00:54:30.936Z,0.00
2023-04-08T00:55:30.933Z,0.00
2023-04-08T00:56:30.924Z,0.00
2023-04-08T00:57:30.922Z,0.00
2023-04-08T00:58:30.943Z,0.00
2023-04-08T00:59:30.901Z,0.00
2023-04-08T01:00:30.894Z,0.00
2023-04-08T01:01:30.934Z,0.00
2023-04-08T01:02:31.040Z,0.00
2023-04-08T01:03:31.016Z,0.00
2023-04-08T01:04:30.911Z,0.00
2023-04-08T01:05:30.869Z,0.00
2023-04-08T01:06:30.853Z,0.00
2023-04-08T01:07:30.839Z,0.00
2023-04-08T01:08:30.830Z,0.00
2023-04-08T01:09:30.825Z,0.00
2023-04-08T01:10:30.820Z,0.00
2023-04-08T01:11:30.806Z,0.00
2023-04-08T01:12:30.807Z,0.00
2023-04-08T01:13:30.805Z,0.00
2023-04-08T01:14:30.799Z,0.00
2023-04-08T01:15:30.851Z,0.00
2023-04-08T01:16:30.823Z,0.00
2023-04-08T01:17:30.799Z,0.00
2023-04-08T01:18:30.762Z,0.00
2023-04-08T01:19:30.759Z,0.00
2023-04-08T01:20:30.758Z,0.00
2023-04-08T01:21:30.743Z,0.00
2023-04-08T01:22:30.732Z,0.00
2023-04-08T01:23:30.743Z,0.00
2023-04-08T01:24:30.720Z,0.00
2023-04-08T01:25:30.715Z,0.00
2023-04-08T01:26:30.715Z,0.00
2023-04-08T01:27:30.694Z,0.00
2023-04-08T01:28:30.692Z,0.00
2023-04-08T01:29:30.684Z,0.00
2023-04-08T01:30:30.759Z,0.00
2023-04-08T01:31:30.772Z,0.00
2023-04-08T01:32:30.676Z,0.00
2023-04-08T01:33:30.662Z,0.00
2023-04-08T01:34:30.648Z,0.00
2023-04-08T01:35:30.673Z,0.00
2023-04-08T01:36:30.651Z,0.00
2023-04-08T01:37:30.634Z,0.00
2023-04-08T01:38:30.623Z,0.00
2023-04-08T01:39:30.623Z,0.00
2023-04-08T01:40:30.613Z,0.00
2023-04-08T01:41:30.605Z,0.00
2023-04-08T01:42:30.602Z,0.00
2023-04-08T01:43:30.588Z,0.00
2023-04-08T01:44:30.586Z,0.00
2023-04-08T01:45:30.582Z,0.00
2023-04-08T01:46:30.635Z,0.00
2023-04-08T01:47:30.578Z,0.00
2023-04-08T01:48:30.552Z,0.00
2023-04-08T01:49:30.569Z,0.00
2023-04-08T01:50:30.549Z,0.00
2023-04-08T01:51:30.531Z,0.00
2023-04-08T01:52:30.526Z,0.00
2023-04-08T01:53:30.523Z,0.00
2023-04-08T01:54:30.513Z,0.00
2023-04-08T01:55:30.506Z,0.00
2023-04-08T01:56:30.492Z,0.00
2023-04-08T01:57:30.495Z,0.00
2023-04-08T01:58:30.487Z,0.00
2023-04-08T01:59:30.473Z,0.00
2023-04-08T02:00:30.478Z,0.00
2023-04-08T02:01:30.680Z,0.00
2023-04-08T02:02:30.562Z,0.00
2023-04-08T02:03:30.773Z,0.00
2023-04-08T02:04:30.548Z,0.00
2023-04-08T02:05:30.444Z,0.00
2023-04-08T02:06:30.428Z,0.00
2023-04-08T02:07:30.413Z,0.00
2023-04-08T02:08:30.428Z,0.00
2023-04-08T02:09:30.403Z,0.00
2023-04-08T02:10:30.409Z,0.00
2023-04-08T02:11:30.396Z,0.00
2023-04-08T02:12:30.406Z,0.00
2023-04-08T02:13:30.461Z,0.00
2023-04-08T02:14:30.427Z,0.00
2023-04-08T02:15:30.407Z,0.00
2023-04-08T02:16:30.487Z,0.00
2023-04-08T02:17:30.408Z,0.00
2023-04-08T02:18:30.415Z,0.00
2023-04-08T02:19:30.422Z,0.00
2023-04-08T02:20:30.415Z,0.00
2023-04-08T02:21:30.394Z,0.00
2023-04-08T02:22:30.307Z,0.00
2023-04-08T02:23:30.290Z,0.00
2023-04-08T02:24:30.286Z,0.00
2023-04-08T02:25:30.291Z,0.00
2023-04-08T02:26:30.279Z,0.00
2023-04-08T02:27:30.259Z,0.00
2023-04-08T02:28:30.264Z,0.00
2023-04-08T02:29:30.264Z,0.00
2023-04-08T02:30:30.246Z,0.00
2023-04-08T02:31:30.291Z,0.00
2023-04-08T02:32:30.271Z,0.00
2023-04-08T02:33:30.241Z,0.00
2023-04-08T02:34:30.217Z,0.00
2023-04-08T02:35:30.234Z,0.00
2023-04-08T02:36:30.197Z,0.00
2023-04-08T02:37:30.194Z,0.00
2023-04-08T02:38:30.212Z,0.00
2023-04-08T02:39:30.182Z,0.00
2023-04-08T02:40:30.191Z,0.00
2023-04-08T02:41:30.170Z,0.00
2023-04-08T02:42:30.175Z,0.00
2023-04-08T02:43:30.165Z,0.00
2023-04-08T02:44:30.150Z,0.00
2023-04-08T02:45:30.173Z,0.00
2023-04-08T02:46:30.119Z,0.00
2023-04-08T02:47:30.146Z,0.00
2023-04-08T02:48:30.107Z,0.00
2023-04-08T02:49:30.103Z,0.00
2023-04-08T02:50:30.104Z,0.00
2023-04-08T02:51:30.095Z,0.00
2023-04-08T02:52:30.075Z,0.00
2023-04-08T02:53:30.063Z,0.00
2023-04-08T02:54:30.058Z,0.00
2023-04-08T02:55:30.055Z,0.00
2023-04-08T02:56:30.044Z,0.00
2023-04-08T02:57:30.034Z,0.00
2023-04-08T02:58:30.026Z,0.00
2023-04-08T02:59:30.016Z,0.00
2023-04-08T03:00:30.012Z,0.00
2023-04-08T03:01:30.264Z,0.00
2023-04-08T03:02:30.062Z,0.00
2023-04-08T03:03:30.112Z,0.00
2023-04-08T03:04:29.986Z,0.00
2023-04-08T03:05:29.982Z,0.00
2023-04-08T03:06:29.972Z,0.00
2023-04-08T03:07:29.956Z,0.00
2023-04-08T03:08:29.950Z,0.00
2023-04-08T03:09:29.935Z,0.00
2023-04-08T03:10:29.942Z,0.00
2023-04-08T03:11:29.927Z,0.00
2023-04-08T03:12:29.922Z,0.00
2023-04-08T03:13:29.926Z,0.00
2023-04-08T03:14:29.903Z,0.00
2023-04-08T03:15:29.897Z,0.00
2023-04-08T03:16:29.922Z,0.00
2023-04-08T03:17:29.900Z,0.00
2023-04-08T03:18:29.874Z,0.00
2023-04-08T03:19:29.869Z,0.00
2023-04-08T03:20:29.858Z,0.00
2023-04-08T03:21:29.845Z,0.00
2023-04-08T03:22:29.845Z,0.00
2023-04-08T03:23:29.833Z,0.00
2023-04-08T03:24:29.832Z,0.00
2023-04-08T03:25:29.823Z,0.00
2023-04-08T03:26:29.816Z,0.00
2023-04-08T03:27:29.811Z,0.00
2023-04-08T03:28:29.797Z,0.00
2023-04-08T03:29:29.785Z,0.00
2023-04-08T03:30:29.784Z,0.00
2023-04-08T03:31:29.833Z,0.00
2023-04-08T03:32:29.842Z,0.00
2023-04-08T03:33:29.757Z,0.00
2023-04-08T03:34:29.759Z,0.00
2023-04-08T03:35:29.765Z,0.00
2023-04-08T03:36:29.739Z,0.00
2023-04-08T03:37:29.735Z,0.00
2023-04-08T03:38:29.719Z,0.00
2023-04-08T03:39:29.718Z,0.00
2023-04-08T03:40:29.709Z,0.00
2023-04-08T03:41:29.696Z,0.00
2023-04-08T03:42:29.692Z,0.00
2023-04-08T03:43:29.672Z,0.00
2023-04-08T03:44:29.695Z,0.00
2023-04-08T03:45:29.670Z,0.00
2023-04-08T03:46:29.690Z,0.00
2023-04-08T03:47:29.698Z,0.00
2023-04-08T03:48:29.652Z,0.00
2023-04-08T03:49:29.644Z,0.00
2023-04-08T03:50:29.623Z,0.00
2023-04-08T03:51:29.638Z,0.00
2023-04-08T03:52:29.643Z,0.00
2023-04-08T03:53:29.604Z,0.00
2023-04-08T03:54:29.605Z,0.00
2023-04-08T03:55:29.587Z,0.00
2023-04-08T03:56:29.582Z,0.00
2023-04-08T03:57:29.580Z,0.00
2023-04-08T03:58:29.565Z,0.00
2023-04-08T03:59:29.565Z,0.00
2023-04-08T04:00:29.559Z,0.00
2023-04-08T04:01:29.564Z,0.00
2023-04-08T04:02:29.685Z,0.00
2023-04-08T04:03:29.592Z,0.00
2023-04-08T04:04:29.581Z,0.00
2023-04-08T04:05:29.515Z,0.00
2023-04-08T04:06:29.501Z,0.00
2023-04-08T04:07:29.496Z,0.00
2023-04-08T04:08:29.503Z,0.00
2023-04-08T04:09:29.476Z,0.00
2023-04-08T04:10:29.469Z,0.00
2023-04-08T04:11:29.478Z,0.00
2023-04-08T04:12:29.455Z,0.00
2023-04-08T04:13:29.523Z,0.00
2023-04-08T04:14:29.437Z,0.00
2023-04-08T04:15:29.447Z,0.00
2023-04-08T04:16:31.576Z,0.00
2023-04-08T04:17:29.442Z,0.00
2023-04-08T04:18:29.453Z,0.00
2023-04-08T04:19:29.398Z,0.00
2023-04-08T04:20:29.415Z,0.00
2023-04-08T04:21:29.395Z,0.00
2023-04-08T04:22:29.377Z,0.00
2023-04-08T04:23:29.365Z,0.00
2023-04-08T04:24:29.364Z,0.00
2023-04-08T04:25:29.368Z,0.00
2023-04-08T04:26:29.347Z,0.00
2023-04-08T04:27:29.342Z,0.00
2023-04-08T04:28:29.336Z,0.00
2023-04-08T04:29:29.327Z,0.00
2023-04-08T04:30:29.312Z,0.00
2023-04-08T04:31:29.339Z,0.00
2023-04-08T04:32:29.315Z,0.00
2023-04-08T04:33:29.297Z,0.00
2023-04-08T04:34:29.285Z,0.00
2023-04-08T04:35:29.295Z,0.00
2023-04-08T04:36:29.272Z,0.00
2023-04-08T04:37:29.264Z,0.00
2023-04-08T04:38:29.254Z,4.00
2023-04-08T04:39:29.248Z,4.00
2023-04-08T04:40:29.243Z,4.00
2023-04-08T04:41:29.242Z,0.00
2023-04-08T04:42:29.225Z,0.00
2023-04-08T04:43:29.218Z,4.00
2023-04-08T04:44:29.210Z,4.00
2023-04-08T04:45:29.208Z,4.00
2023-04-08T04:46:29.207Z,4.00
2023-04-08T04:47:29.194Z,4.00
2023-04-08T04:48:29.177Z,8.00
2023-04-08T04:49:29.168Z,8.00
2023-04-08T04:50:29.171Z,8.00
2023-04-08T04:51:29.154Z,12.00
2023-04-08T04:52:29.140Z,8.00
2023-04-08T04:53:29.130Z,12.00
2023-04-08T04:54:29.130Z,8.00
2023-04-08T04:55:29.123Z,12.00
2023-04-08T04:56:29.129Z,12.00
2023-04-08T04:57:29.099Z,16.00
2023-04-08T04:58:29.105Z,12.00
2023-04-08T04:59:29.094Z,12.00
2023-04-08T05:00:29.084Z,12.00
2023-04-08T05:01:29.124Z,16.00
2023-04-08T05:02:29.238Z,16.00
2023-04-08T05:03:29.096Z,20.00
2023-04-08T05:04:29.061Z,20.00
2023-04-08T05:05:29.101Z,20.00
2023-04-08T05:06:29.046Z,20.00
2023-04-08T05:07:29.037Z,24.00
2023-04-08T05:08:29.034Z,28.00
2023-04-08T05:09:29.047Z,28.00
2023-04-08T05:10:29.017Z,28.00
2023-04-08T05:11:29.013Z,32.00
2023-04-08T05:12:29.001Z,32.00
2023-04-08T05:13:29.017Z,36.00
2023-04-08T05:14:28.991Z,36.00
2023-04-08T05:15:28.975Z,40.00
2023-04-08T05:16:29.009Z,44.00
2023-04-08T05:17:29.021Z,44.00
2023-04-08T05:18:28.969Z,48.00
2023-04-08T05:19:28.948Z,48.00
2023-04-08T05:20:28.941Z,52.00
2023-04-08T05:21:28.930Z,56.00
2023-04-08T05:22:28.927Z,60.00
2023-04-08T05:23:28.918Z,60.00
2023-04-08T05:24:28.909Z,60.00
2023-04-08T05:25:28.911Z,64.00
2023-04-08T05:26:28.902Z,68.00
2023-04-08T05:27:28.898Z,68.00
2023-04-08T05:28:28.883Z,76.00
2023-04-08T05:29:28.881Z,88.00
2023-04-08T05:30:28.882Z,100.00
2023-04-08T05:31:28.934Z,112.00
2023-04-08T05:32:28.858Z,116.00
2023-04-08T05:33:28.839Z,124.00
2023-04-08T05:34:28.832Z,140.00
2023-04-08T05:35:28.890Z,156.00
2023-04-08T05:36:28.820Z,168.00
2023-04-08T05:37:28.814Z,172.00
2023-04-08T05:38:28.815Z,180.00
2023-04-08T05:39:28.811Z,184.00
2023-04-08T05:40:28.794Z,184.00
2023-04-08T05:41:28.799Z,200.00
2023-04-08T05:42:28.788Z,232.00
2023-04-08T05:43:28.769Z,228.00
2023-04-08T05:44:28.757Z,208.00
2023-04-08T05:45:28.749Z,212.00
2023-04-08T05:46:28.763Z,232.00
2023-04-08T05:47:28.764Z,244.00
2023-04-08T05:48:28.736Z,244.00
2023-04-08T05:49:28.753Z,252.00
2023-04-08T05:50:28.714Z,256.00
2023-04-08T05:51:28.708Z,232.00
2023-04-08T05:52:28.698Z,200.00
2023-04-08T05:53:28.686Z,200.00
2023-04-08T05:54:28.676Z,232.00
2023-04-08T05:55:28.672Z,260.00
2023-04-08T05:56:28.665Z,264.00
2023-04-08T05:57:28.659Z,232.00
2023-04-08T05:58:28.645Z,208.00
2023-04-08T05:59:28.639Z,196.00
2023-04-08T06:00:28.640Z,208.00
2023-04-08T06:01:28.768Z,192.00
2023-04-08T06:02:28.723Z,176.00
2023-04-08T06:03:28.685Z,164.00
2023-04-08T06:04:28.660Z,164.00
2023-04-08T06:05:28.595Z,164.00
2023-04-08T06:06:28.588Z,180.00
2023-04-08T06:07:28.573Z,180.00
2023-04-08T06:08:28.568Z,176.00
2023-04-08T06:09:28.564Z,176.00
2023-04-08T06:10:28.587Z,212.00
2023-04-08T06:11:28.560Z,256.00
2023-04-08T06:12:28.534Z,272.00
2023-04-08T06:13:28.531Z,256.00
2023-04-08T06:14:28.524Z,272.00
2023-04-08T06:15:28.514Z,288.00
2023-04-08T06:16:28.522Z,264.00
2023-04-08T06:17:28.514Z,240.00
2023-04-08T06:18:28.712Z,212.00
2023-04-08T06:19:28.503Z,232.00
2023-04-08T06:20:28.486Z,264.00
2023-04-08T06:21:28.475Z,280.00
2023-04-08T06:22:28.470Z,292.00
2023-04-08T06:23:28.500Z,292.00
2023-04-08T06:24:28.451Z,288.00
2023-04-08T06:25:28.448Z,260.00
2023-04-08T06:26:28.439Z,280.00
2023-04-08T06:27:28.426Z,280.00
2023-04-08T06:28:28.415Z,288.00
2023-04-08T06:29:28.405Z,296.00
2023-04-08T06:30:28.426Z,332.00
2023-04-08T06:31:28.482Z,352.00
2023-04-08T06:32:28.420Z,396.00
2023-04-08T06:33:28.376Z,412.00
2023-04-08T06:34:28.392Z,420.00
2023-04-08T06:35:28.479Z,480.00
2023-04-08T06:36:28.386Z,492.00
2023-04-08T06:37:28.360Z,464.00
2023-04-08T06:38:28.350Z,424.00
2023-04-08T06:39:28.334Z,416.00
2023-04-08T06:40:28.332Z,364.00
2023-04-08T06:41:28.323Z,320.00
2023-04-08T06:42:28.309Z,288.00
2023-04-08T06:43:28.314Z,248.00
2023-04-08T06:44:28.331Z,216.00
2023-04-08T06:45:28.296Z,236.00
2023-04-08T06:46:28.370Z,268.00
2023-04-08T06:47:28.287Z,316.00
2023-04-08T06:48:28.264Z,324.00
2023-04-08T06:49:28.286Z,384.00
2023-04-08T06:50:28.258Z,444.00
2023-04-08T06:51:28.237Z,448.00
2023-04-08T06:52:28.255Z,448.00
2023-04-08T06:53:28.233Z,408.00
2023-04-08T06:54:28.221Z,376.00
2023-04-08T06:55:28.220Z,364.00
2023-04-08T06:56:28.265Z,476.00
2023-04-08T06:57:28.220Z,568.00
2023-04-08T06:58:28.201Z,596.00
2023-04-08T06:59:28.196Z,500.00
2023-04-08T07:00:28.187Z,424.00
2023-04-08T07:01:28.253Z,444.00
2023-04-08T07:02:28.233Z,544.00
2023-04-08T07:03:28.277Z,660.00
2023-04-08T07:04:28.150Z,748.00
2023-04-08T07:05:28.146Z,716.00
2023-04-08T07:06:28.134Z,636.00
2023-04-08T07:07:28.126Z,588.00
2023-04-08T07:08:28.128Z,664.00
2023-04-08T07:09:28.130Z,736.00
2023-04-08T07:10:28.100Z,744.00
2023-04-08T07:11:28.098Z,692.00
2023-04-08T07:12:28.085Z,632.00
2023-04-08T07:13:28.081Z,608.00
2023-04-08T07:14:28.080Z,664.00
2023-04-08T07:15:28.061Z,748.00
2023-04-08T07:16:28.111Z,828.00
2023-04-08T07:17:28.061Z,808.00
2023-04-08T07:18:28.049Z,820.00
2023-04-08T07:19:28.038Z,792.00
2023-04-08T07:20:28.098Z,768.00
2023-04-08T07:21:28.020Z,760.00
2023-04-08T07:22:28.036Z,800.00
2023-04-08T07:23:28.017Z,796.00
2023-04-08T07:24:28.000Z,760.00
2023-04-08T07:25:28.002Z,760.00
2023-04-08T07:26:27.982Z,720.00
2023-04-08T07:27:27.978Z,728.00
2023-04-08T07:28:27.967Z,716.00
2023-04-08T07:29:27.969Z,716.00
2023-04-08T07:30:27.975Z,760.00
2023-04-08T07:31:28.066Z,740.00
2023-04-08T07:32:28.002Z,732.00
2023-04-08T07:33:27.939Z,788.00
2023-04-08T07:34:27.930Z,884.00
2023-04-08T07:35:28.023Z,888.00
2023-04-08T07:36:27.914Z,876.00
2023-04-08T07:37:27.908Z,936.00
2023-04-08T07:38:27.908Z,1032.00
2023-04-08T07:39:27.885Z,1212.00
2023-04-08T07:40:27.891Z,1332.00
2023-04-08T07:41:27.872Z,1320.00
2023-04-08T07:42:27.871Z,1372.00
2023-04-08T07:43:27.860Z,1640.00
2023-04-08T07:44:27.865Z,1676.00
2023-04-08T07:45:27.838Z,1600.00
2023-04-08T07:46:27.870Z,1832.00
2023-04-08T07:47:27.873Z,1880.00
2023-04-08T07:48:27.830Z,1752.00
2023-04-08T07:49:27.821Z,1964.00
2023-04-08T07:50:27.803Z,2072.00
2023-04-08T07:51:27.805Z,2400.00
2023-04-08T07:52:27.791Z,2016.00
2023-04-08T07:53:27.788Z,1884.00
2023-04-08T07:54:27.775Z,2068.00
2023-04-08T07:55:27.783Z,2036.00
2023-04-08T07:56:27.779Z,1932.00
2023-04-08T07:57:27.760Z,1856.00
2023-04-08T07:58:27.754Z,1064.00
2023-04-08T07:59:27.746Z,864.00
2023-04-08T08:00:27.745Z,748.00
2023-04-08T08:01:27.746Z,756.00
2023-04-08T08:02:27.891Z,732.00
2023-04-08T08:03:27.832Z,916.00
2023-04-08T08:04:27.878Z,1092.00
2023-04-08T08:05:27.712Z,1064.00
2023-04-08T08:06:27.693Z,1056.00
2023-04-08T08:07:27.687Z,1092.00
2023-04-08T08:08:27.696Z,1328.00
2023-04-08T08:09:27.686Z,1444.00
2023-04-08T08:10:27.674Z,1304.00
2023-04-08T08:11:27.672Z,1220.00
2023-04-08T08:12:27.654Z,1336.00
2023-04-08T08:13:27.644Z,1544.00
2023-04-08T08:14:27.668Z,1620.00
2023-04-08T08:15:27.630Z,1260.00
2023-04-08T08:16:27.746Z,1048.00
2023-04-08T08:17:28.202Z,1032.00
2023-04-08T08:18:27.620Z,1076.00
2023-04-08T08:19:27.608Z,936.00
2023-04-08T08:20:27.602Z,976.00
2023-04-08T08:21:27.592Z,1120.00
2023-04-08T08:22:27.584Z,1016.00
2023-04-08T08:23:27.579Z,1044.00
2023-04-08T08:24:27.569Z,1160.00
2023-04-08T08:25:27.567Z,1004.00
2023-04-08T08:26:27.579Z,964.00
2023-04-08T08:27:27.558Z,936.00
2023-04-08T08:28:27.547Z,1192.00
2023-04-08T08:29:27.566Z,1280.00
2023-04-08T08:30:27.538Z,1588.00
2023-04-08T08:31:27.554Z,1608.00
2023-04-08T08:32:27.551Z,1416.00
2023-04-08T08:33:27.505Z,1308.00
2023-04-08T08:34:27.503Z,1248.00
2023-04-08T08:35:27.498Z,1364.00
2023-04-08T08:36:27.489Z,1380.00
2023-04-08T08:37:27.489Z,1408.00
2023-04-08T08:38:27.483Z,1500.00
2023-04-08T08:39:27.474Z,1620.00
2023-04-08T08:40:27.467Z,1740.00
2023-04-08T08:41:27.458Z,1836.00
2023-04-08T08:42:27.454Z,1808.00
2023-04-08T08:43:27.448Z,1844.00
2023-04-08T08:44:27.446Z,1836.00
2023-04-08T08:45:27.439Z,1788.00
2023-04-08T08:46:27.429Z,1796.00
2023-04-08T08:47:27.430Z,1776.00
2023-04-08T08:48:27.417Z,1744.00
2023-04-08T08:49:27.404Z,1736.00
2023-04-08T08:50:27.397Z,1756.00
2023-04-08T08:51:27.396Z,1740.00
2023-04-08T08:52:27.385Z,1656.00
2023-04-08T08:53:27.381Z,1780.00
2023-04-08T08:54:27.364Z,2012.00
2023-04-08T08:55:50.339Z,2068.00
2023-04-08T08:56:27.364Z,2040.00
2023-04-08T08:57:27.360Z,1872.00
2023-04-08T08:58:27.347Z,1700.00
2023-04-08T08:59:27.338Z,1480.00
2023-04-08T09:00:27.340Z,1356.00
2023-04-08T09:01:27.414Z,1272.00
2023-04-08T09:02:27.497Z,1168.00
2023-04-08T09:03:27.628Z,1236.00
2023-04-08T09:04:27.574Z,1320.00
2023-04-08T09:05:27.407Z,1432.00
2023-04-08T09:06:27.289Z,1384.00
2023-04-08T09:07:27.286Z,1188.00
2023-04-08T09:08:27.287Z,1224.00
2023-04-08T09:09:27.272Z,1404.00
2023-04-08T09:10:27.262Z,1552.00
2023-04-08T09:11:27.256Z,1520.00
2023-04-08T09:12:27.268Z,1588.00
2023-04-08T09:13:27.239Z,1840.00
2023-04-08T09:14:27.242Z,1856.00
2023-04-08T09:15:27.232Z,1964.00
2023-04-08T09:16:27.302Z,2096.00
2023-04-08T09:17:27.237Z,2176.00
2023-04-08T09:18:27.222Z,2332.00
2023-04-08T09:19:27.203Z,2384.00
2023-04-08T09:20:27.220Z,2400.00
2023-04-08T09:21:27.188Z,2436.00
2023-04-08T09:22:27.198Z,2476.00
2023-04-08T09:23:27.190Z,2476.00
2023-04-08T09:24:27.186Z,2428.00
2023-04-08T09:25:27.183Z,2396.00
2023-04-08T09:26:27.156Z,2388.00
2023-04-08T09:27:27.175Z,2304.00
2023-04-08T09:28:27.148Z,2232.00
2023-04-08T09:29:28.766Z,2132.00
2023-04-08T09:30:27.133Z,2104.00
2023-04-08T09:31:27.160Z,2104.00
2023-04-08T09:32:27.158Z,2112.00
2023-04-08T09:33:27.122Z,2128.00
2023-04-08T09:34:27.105Z,2252.00
2023-04-08T09:35:27.185Z,2500.00
2023-04-08T09:36:27.103Z,2544.00
2023-04-08T09:37:27.092Z,2568.00
2023-04-08T09:38:27.096Z,2724.00
2023-04-08T09:39:27.081Z,2552.00
2023-04-08T09:40:27.073Z,2436.00
2023-04-08T09:41:27.069Z,2188.00
2023-04-08T09:42:27.071Z,2140.00
2023-04-08T09:43:27.052Z,2060.00
2023-04-08T09:44:27.041Z,2168.00
2023-04-08T09:45:27.052Z,2160.00
2023-04-08T09:46:27.043Z,2092.00
2023-04-08T09:47:27.040Z,1868.00
2023-04-08T09:48:27.025Z,1972.00
2023-04-08T09:49:27.028Z,1952.00
2023-04-08T09:50:27.004Z,1932.00
2023-04-08T09:51:26.998Z,1976.00
2023-04-08T09:52:27.009Z,2112.00
2023-04-08T09:53:26.994Z,2280.00
2023-04-08T09:54:26.992Z,2884.00
2023-04-08T09:55:26.976Z,7644.00
2023-04-08T09:56:26.980Z,5332.00
2023-04-08T09:57:26.961Z,4696.00
2023-04-08T09:58:26.961Z,3056.00
2023-04-08T09:59:26.954Z,3008.00
2023-04-08T10:00:26.948Z,2600.00
2023-04-08T10:01:27.032Z,2132.00
2023-04-08T10:02:27.032Z,1672.00
2023-04-08T10:03:27.102Z,1524.00
2023-04-08T10:04:26.974Z,1476.00
2023-04-08T10:05:26.923Z,1416.00
2023-04-08T10:06:26.912Z,1396.00
2023-04-08T10:07:26.916Z,1408.00
2023-04-08T10:08:26.900Z,1344.00
2023-04-08T10:09:26.904Z,1200.00
2023-04-08T10:10:26.894Z,1148.00
2023-04-08T10:11:26.882Z,1212.00
2023-04-08T10:12:26.880Z,1220.00
2023-04-08T10:13:26.868Z,1296.00
2023-04-08T10:14:26.864Z,1316.00
2023-04-08T10:15:26.881Z,1360.00
2023-04-08T10:16:26.915Z,1524.00
2023-04-08T10:17:26.895Z,1636.00
2023-04-08T10:18:26.841Z,1628.00
2023-04-08T10:19:26.832Z,1828.00
2023-04-08T10:20:26.870Z,1896.00
2023-04-08T10:21:26.827Z,1936.00
2023-04-08T10:22:26.819Z,1992.00
2023-04-08T10:23:26.807Z,2092.00
2023-04-08T10:24:26.813Z,2184.00
2023-04-08T10:25:26.813Z,2256.00
2023-04-08T10:26:26.800Z,2236.00
2023-04-08T10:27:26.789Z,2016.00
2023-04-08T10:28:26.804Z,1872.00
2023-04-08T10:29:26.773Z,1620.00
2023-04-08T10:30:26.769Z,1532.00
2023-04-08T10:31:26.788Z,1400.00
2023-04-08T10:32:26.770Z,1284.00
2023-04-08T10:33:26.750Z,1216.00
2023-04-08T10:34:26.794Z,1220.00
2023-04-08T10:35:26.778Z,1120.00
2023-04-08T10:36:26.741Z,1044.00
2023-04-08T10:37:26.724Z,968.00
2023-04-08T10:38:26.722Z,1068.00
2023-04-08T10:39:26.713Z,1264.00
2023-04-08T10:40:26.725Z,1176.00
2023-04-08T10:41:26.704Z,1024.00
2023-04-08T10:42:26.706Z,1096.00
2023-04-08T10:43:26.697Z,1220.00
2023-04-08T10:44:26.694Z,1252.00
2023-04-08T10:45:26.674Z,1384.00
2023-04-08T10:46:26.700Z,1500.00
2023-04-08T10:47:26.679Z,1592.00
2023-04-08T10:48:26.653Z,1652.00
2023-04-08T10:49:26.640Z,1756.00
2023-04-08T10:50:26.660Z,1768.00
2023-04-08T10:51:26.632Z,1656.00
2023-04-08T10:52:26.623Z,1624.00
2023-04-08T10:53:26.621Z,1588.00
2023-04-08T10:54:26.610Z,1560.00
2023-04-08T10:55:26.625Z,1612.00
2023-04-08T10:56:26.619Z,1676.00
2023-04-08T10:57:26.601Z,1740.00
2023-04-08T10:58:26.590Z,1744.00
2023-04-08T10:59:26.585Z,1692.00
2023-04-08T11:00:26.583Z,1624.00
2023-04-08T11:01:26.606Z,1520.00
2023-04-08T11:02:26.776Z,1464.00
2023-04-08T11:03:26.649Z,1508.00
2023-04-08T11:04:26.658Z,1508.00
2023-04-08T11:05:26.561Z,1440.00
2023-04-08T11:06:26.544Z,1360.00
2023-04-08T11:07:26.532Z,1464.00
2023-04-08T11:08:26.536Z,1580.00
2023-04-08T11:09:26.526Z,1616.00
2023-04-08T11:10:26.515Z,1636.00
2023-04-08T11:11:26.525Z,1652.00
2023-04-08T11:12:26.502Z,1700.00
2023-04-08T11:13:26.508Z,1780.00
2023-04-08T11:14:26.490Z,2036.00
2023-04-08T11:15:26.561Z,2396.00
2023-04-08T11:16:26.525Z,2496.00
2023-04-08T11:17:26.507Z,2560.00
2023-04-08T11:18:26.461Z,2540.00
2023-04-08T11:19:26.467Z,2724.00
2023-04-08T11:20:26.467Z,2952.00
2023-04-08T11:21:26.444Z,2952.00
2023-04-08T11:22:26.450Z,2868.00
2023-04-08T11:23:26.465Z,2828.00
2023-04-08T11:24:26.434Z,2736.00
2023-04-08T11:25:26.432Z,2808.00
2023-04-08T11:26:26.435Z,2908.00
2023-04-08T11:27:26.414Z,2944.00
2023-04-08T11:28:26.415Z,3040.00
2023-04-08T11:29:26.405Z,3100.00
2023-04-08T11:30:26.390Z,2824.00
2023-04-08T11:31:26.412Z,2688.00
2023-04-08T11:32:26.427Z,2560.00
2023-04-08T11:33:26.408Z,2436.00
2023-04-08T11:34:26.368Z,2272.00
2023-04-08T11:35:26.387Z,2140.00
2023-04-08T11:36:26.374Z,2060.00
2023-04-08T11:37:27.840Z,1980.00
2023-04-08T11:38:26.351Z,1916.00
2023-04-08T11:39:26.353Z,1940.00
2023-04-08T11:40:26.356Z,1940.00
2023-04-08T11:41:26.327Z,1852.00
2023-04-08T11:42:26.354Z,1784.00
2023-04-08T11:43:26.410Z,1784.00
2023-04-08T11:44:26.316Z,1752.00
2023-04-08T11:45:26.326Z,1704.00
2023-04-08T11:46:26.438Z,1760.00
2023-04-08T11:47:26.344Z,1796.00
2023-04-08T11:48:26.315Z,1824.00
2023-04-08T11:49:26.288Z,1832.00
2023-04-08T11:50:26.290Z,1812.00
2023-04-08T11:51:26.290Z,1732.00
2023-04-08T11:52:26.268Z,1616.00
2023-04-08T11:53:26.270Z,1488.00
2023-04-08T11:54:26.259Z,1392.00
2023-04-08T11:55:26.262Z,1356.00
2023-04-08T11:56:26.284Z,1248.00
2023-04-08T11:57:26.248Z,1160.00
2023-04-08T11:58:26.237Z,1088.00
2023-04-08T11:59:28.389Z,1044.00
2023-04-08T12:00:26.226Z,1028.00
2023-04-08T12:01:26.229Z,1028.00
2023-04-08T12:02:26.355Z,1056.00
2023-04-08T12:03:26.362Z,1060.00
2023-04-08T12:04:26.379Z,1064.00
2023-04-08T12:05:26.193Z,1088.00
2023-04-08T12:06:26.180Z,1108.00
2023-04-08T12:07:26.182Z,1132.00
2023-04-08T12:08:26.178Z,1152.00
2023-04-08T12:09:26.168Z,1156.00
2023-04-08T12:10:26.181Z,1176.00
2023-04-08T12:11:26.182Z,1184.00
2023-04-08T12:12:26.145Z,1192.00
2023-04-08T12:13:26.136Z,1204.00
2023-04-08T12:14:27.759Z,1200.00
2023-04-08T12:15:26.126Z,1188.00
2023-04-08T12:16:26.307Z,1172.00
2023-04-08T12:17:26.196Z,1176.00
2023-04-08T12:18:26.110Z,1192.00
2023-04-08T12:19:26.117Z,1196.00
2023-04-08T12:20:26.103Z,1196.00
2023-04-08T12:21:26.105Z,1184.00
2023-04-08T12:22:26.090Z,1180.00
2023-04-08T12:23:26.074Z,1196.00
2023-04-08T12:24:26.093Z,1248.00
2023-04-08T12:25:26.081Z,1308.00
2023-04-08T12:26:26.061Z,1364.00
2023-04-08T12:27:26.053Z,1392.00
2023-04-08T12:28:26.054Z,1392.00
2023-04-08T12:29:26.046Z,1372.00
2023-04-08T12:30:26.046Z,1380.00
2023-04-08T12:31:26.072Z,1412.00
2023-04-08T12:32:26.083Z,1460.00
2023-04-08T12:33:26.020Z,1488.00
2023-04-08T12:34:26.019Z,1464.00
2023-04-08T12:35:26.007Z,1420.00
2023-04-08T12:36:26.130Z,1432.00
2023-04-08T12:37:26.021Z,1456.00
2023-04-08T12:38:25.992Z,1564.00